Savoonga Airport Savoonga US
ICAO: PASA
IATA:
Category: Medium
Scheduled Services:

Elevation: 53 ft
TransAlt. 18000 ft.

Airport Communications:
AWOS 3:121.3
CTAF:122.7
NOME RDO:122.3

PASA Zoom In..

Runways:

(A) RW 05 length 4400 ft width 100 ft
---- / hdg 50

(B) RW 23 length 4400 ft width 100 ft
---- / hdg 230

Location; PASA
Day. 11 / Time. 11.56 Zulu
* Altimeter: 29.98
* Temperature: 7/° c. 44.6°f.
* Wind from: 230° Speed 11 kn.
Dewpoint: //° c.
Visibility: 10 Statute Miles.
Clouds: Overcast 2300 ft.

PASA 111156Z AUTO 23011KT 10SM OVC023 10/08 A2998 RMK AO2 SLP152 6//// 7//// T01000078 10111 20094 50000 PNO $

Going to: --> -->


Wind From 230°
Speed 11 kn.

 
 
jpsmedia worldairports.se 2020   terms of use